Time;durP1;ratioP1;P1;durP2;ratioP2;P2;SDS_P1;SDS_P2;PMS_P1;PMS_P2;Temp;Humidity;BMP_temperature;BMP_pressure;BME280_temperature;BME280_humidity;BME280_pressure;Samples;Min_cycle;Max_cycle;Signal;HPM_P1;HPM_P2
2023/01/25 00:02:02;;;;;;;;;51.75;43.25;;;;;-147.17;100.00;-15917.19;5010735;28;51193;-44
2023/01/25 00:04:28;;;;;;;;;49.00;41.75;;;;;-147.17;100.00;-15917.19;5009304;28;51364;-45
2023/01/25 00:06:53;;;;;;;;;54.00;44.25;;;;;-147.17;100.00;-15917.19;5007707;28;51343;-44
2023/01/25 00:09:19;;;;;;;;;50.50;41.25;;;;;-147.17;100.00;-15917.19;4992603;28;51408;-44
2023/01/25 00:11:46;;;;;;;;;60.00;43.00;;;;;-147.17;100.00;-15917.19;5011979;28;51108;-44
2023/01/25 00:14:12;;;;;;;;;47.25;40.25;;;;;-147.17;100.00;-15917.19;5011210;28;51138;-44
2023/01/25 00:16:38;;;;;;;;;50.25;43.00;;;;;-147.17;100.00;-15917.19;5021438;28;51122;-45
2023/01/25 00:19:06;;;;;;;;;45.25;39.75;;;;;-147.17;100.00;-15917.19;5006800;28;51129;-44
2023/01/25 00:21:33;;;;;;;;;45.75;38.25;;;;;-147.17;100.00;-15917.19;5011186;28;51321;-45
2023/01/25 00:23:58;;;;;;;;;48.75;41.75;;;;;-147.17;100.00;-15917.19;4999235;28;51870;-44
2023/01/25 00:26:24;;;;;;;;;42.25;38.00;;;;;-147.17;100.00;-15917.19;5004006;28;51253;-44
2023/01/25 00:28:50;;;;;;;;;50.50;41.50;;;;;-147.17;100.00;-15917.19;5007014;28;51318;-45
2023/01/25 00:31:32;;;;;;;;;44.50;41.25;;;;;-147.17;100.00;-15917.19;5004082;28;51657;-44
2023/01/25 00:34:28;;;;;;;;;44.75;40.75;;;;;-147.17;100.00;-15917.19;4987733;28;53013;-45
2023/01/25 00:37:20;;;;;;;;;46.50;40.50;;;;;-147.17;100.00;-15917.19;5000784;28;51362;-44
2023/01/25 00:39:46;;;;;;;;;39.50;36.75;;;;;-147.17;100.00;-15917.19;4984029;28;51065;-44
2023/01/25 00:42:13;;;;;;;;;53.00;42.75;;;;;-147.17;100.00;-15917.19;5009424;28;51464;-44
2023/01/25 00:44:39;;;;;;;;;50.50;42.75;;;;;-147.17;100.00;-15917.19;5009178;28;51303;-44
2023/01/25 00:47:05;;;;;;;;;46.75;38.75;;;;;-147.17;100.00;-15917.19;5002222;28;51173;-45
2023/01/25 00:49:31;;;;;;;;;46.25;41.25;;;;;-147.17;100.00;-15917.19;5004148;28;51206;-43
2023/01/25 00:51:57;;;;;;;;;45.50;40.00;;;;;-147.17;100.00;-15917.19;5004268;28;52272;-44
2023/01/25 00:54:23;;;;;;;;;49.75;41.25;;;;;-147.17;100.00;-15917.19;5004746;28;51998;-44
2023/01/25 00:56:51;;;;;;;;;46.75;34.50;;;;;-147.17;100.00;-15917.19;5002088;28;51981;-44
2023/01/25 00:59:16;;;;;;;;;48.00;38.25;;;;;-147.17;100.00;-15917.19;5001917;28;51933;-44
2023/01/25 01:01:42;;;;;;;;;47.50;39.50;;;;;-147.17;100.00;-15917.19;5001079;28;51533;-44
2023/01/25 01:04:07;;;;;;;;;53.50;42.50;;;;;-147.17;100.00;-15917.19;5002804;28;51256;-44
2023/01/25 01:06:37;;;;;;;;;39.25;37.00;;;;;-147.17;100.00;-15917.19;5001968;28;51182;-43
2023/01/25 01:09:05;;;;;;;;;47.75;39.75;;;;;-147.17;100.00;-15917.19;5003226;28;51243;-45
2023/01/25 01:11:33;;;;;;;;;42.75;37.00;;;;;-147.17;100.00;-15917.19;5002483;28;52101;-45
2023/01/25 01:13:59;;;;;;;;;51.25;42.50;;;;;-147.17;100.00;-15917.19;5001772;28;51518;-44
2023/01/25 01:16:25;;;;;;;;;44.50;39.25;;;;;-147.17;100.00;-15917.19;5003773;28;51989;-44
2023/01/25 01:18:51;;;;;;;;;43.00;37.00;;;;;-147.17;100.00;-15917.19;4988245;28;51252;-45
2023/01/25 01:21:17;;;;;;;;;42.25;39.25;;;;;-147.17;100.00;-15917.19;5004807;28;51336;-46
2023/01/25 01:23:43;;;;;;;;;41.75;37.25;;;;;-147.17;100.00;-15917.19;5001172;28;51795;-45
2023/01/25 01:26:13;;;;;;;;;43.00;39.00;;;;;-147.17;100.00;-15917.19;5007272;28;51253;-45
2023/01/25 01:28:38;;;;;;;;;48.00;41.75;;;;;-147.17;100.00;-15917.19;5003080;28;51308;-45
2023/01/25 01:31:07;;;;;;;;;44.75;41.50;;;;;-147.17;100.00;-15917.19;4998887;28;51142;-45
2023/01/25 01:33:33;;;;;;;;;43.00;38.75;;;;;-147.17;100.00;-15917.19;5007364;28;51425;-44
2023/01/25 01:35:58;;;;;;;;;49.50;42.00;;;;;-147.17;100.00;-15917.19;5003084;28;51280;-45
2023/01/25 01:38:24;;;;;;;;;48.75;42.25;;;;;-147.17;100.00;-15917.19;5007887;28;51125;-45
2023/01/25 01:40:50;;;;;;;;;33.25;30.50;;;;;-147.17;100.00;-15917.19;5001144;28;51385;-44
2023/01/25 01:43:21;;;;;;;;;57.50;43.00;;;;;-147.17;100.00;-15917.19;5005742;28;51325;-45
2023/01/25 01:45:46;;;;;;;;;43.25;37.00;;;;;-147.17;100.00;-15917.19;5007181;28;51150;-45
2023/01/25 01:48:26;;;;;;;;;46.75;41.25;;;;;-147.17;100.00;-15917.19;5005009;28;51360;-44
2023/01/25 01:50:56;;;;;;;;;47.50;43.00;;;;;-147.17;100.00;-15917.19;5003392;28;51180;-44
2023/01/25 01:53:23;;;;;;;;;37.00;33.75;;;;;-147.17;100.00;-15917.19;5003170;28;52185;-44
2023/01/25 01:55:51;;;;;;;;;47.00;41.00;;;;;-147.17;100.00;-15917.19;5008739;28;51372;-44
2023/01/25 01:58:17;;;;;;;;;46.50;42.50;;;;;-147.17;100.00;-15917.19;5009955;28;51158;-44
2023/01/25 02:00:43;;;;;;;;;46.75;39.00;;;;;-147.17;100.00;-15917.19;5009385;28;51381;-45
2023/01/25 02:03:10;;;;;;;;;50.25;43.00;;;;;-147.17;100.00;-15917.19;5002444;28;51353;-44
2023/01/25 02:05:40;;;;;;;;;43.25;40.00;;;;;-147.17;100.00;-15917.19;5006992;28;51118;-44
2023/01/25 02:08:09;;;;;;;;;41.25;37.25;;;;;-147.17;100.00;-15917.19;4998870;28;52313;-44
2023/01/25 02:10:37;;;;;;;;;48.75;41.75;;;;;-147.17;100.00;-15917.19;5008366;28;51036;-44
2023/01/25 02:13:02;;;;;;;;;57.50;41.50;;;;;-147.17;100.00;-15917.19;5004422;28;51079;-45
2023/01/25 02:15:43;;;;;;;;;50.00;41.25;;;;;-147.17;100.00;-15917.19;5003792;28;51139;-44
2023/01/25 02:18:10;;;;;;;;;47.00;40.75;;;;;-147.17;100.00;-15917.19;5004065;28;51247;-44
2023/01/25 02:20:42;;;;;;;;;53.50;43.75;;;;;-147.17;100.00;-15917.19;5006153;28;51299;-44
2023/01/25 02:23:47;;;;;;;;;47.75;41.25;;;;;-147.17;100.00;-15917.19;4991461;28;52229;-43
2023/01/25 02:26:13;;;;;;;;;49.75;41.75;;;;;-147.17;100.00;-15917.19;4990659;28;50890;-45
2023/01/25 02:28:42;;;;;;;;;51.00;42.25;;;;;-147.17;100.00;-15917.19;5004766;28;51197;-45
2023/01/25 02:31:08;;;;;;;;;59.00;42.50;;;;;-147.17;100.00;-15917.19;5006111;28;51221;-45
2023/01/25 02:33:33;;;;;;;;;51.25;40.25;;;;;-147.17;100.00;-15917.19;5003750;28;52373;-45
2023/01/25 02:36:16;;;;;;;;;52.25;42.75;;;;;-147.17;100.00;-15917.19;5003741;28;51090;-46
2023/01/25 02:38:47;;;;;;;;;54.00;41.75;;;;;-147.17;100.00;-15917.19;4987289;28;52526;-47
2023/01/25 02:41:24;;;;;;;;;53.25;43.25;;;;;-147.17;100.00;-15917.19;5006015;28;51338;-45
2023/01/25 02:43:49;;;;;;;;;50.00;42.00;;;;;-147.17;100.00;-15917.19;5004563;28;52241;-45
2023/01/25 02:46:22;;;;;;;;;53.50;42.25;;;;;-147.17;100.00;-15917.19;5010688;28;51172;-44
2023/01/25 02:48:47;;;;;;;;;55.50;46.00;;;;;-147.17;100.00;-15917.19;5004616;28;51268;-45
2023/01/25 02:51:13;;;;;;;;;46.00;38.75;;;;;-147.17;100.00;-15917.19;5008215;28;51088;-45
2023/01/25 02:53:38;;;;;;;;;44.00;39.50;;;;;-147.17;100.00;-15917.19;5007494;28;51807;-45
2023/01/25 02:56:04;;;;;;;;;46.25;37.00;;;;;-147.17;100.00;-15917.19;5012277;28;52725;-45
2023/01/25 02:58:29;;;;;;;;;49.25;42.50;;;;;-147.17;100.00;-15917.19;5009121;28;51086;-44
2023/01/25 03:00:56;;;;;;;;;52.50;42.00;;;;;-147.17;100.00;-15917.19;5007868;28;52216;-45
2023/01/25 03:03:21;;;;;;;;;56.75;45.00;;;;;-147.17;100.00;-15917.19;5004358;28;52066;-45
2023/01/25 03:05:46;;;;;;;;;47.50;38.50;;;;;-147.17;100.00;-15917.19;5008888;28;51282;-44
2023/01/25 03:08:12;;;;;;;;;51.50;43.50;;;;;-147.17;100.00;-15917.19;5009965;28;51176;-45
2023/01/25 03:10:37;;;;;;;;;44.50;40.00;;;;;-147.17;100.00;-15917.19;5005076;28;51500;-45
2023/01/25 03:13:03;;;;;;;;;53.75;42.00;;;;;-147.17;100.00;-15917.19;5007496;28;52154;-44
2023/01/25 03:15:28;;;;;;;;;55.25;45.00;;;;;-147.17;100.00;-15917.19;5007447;28;51100;-45
2023/01/25 03:17:55;;;;;;;;;47.75;40.25;;;;;-147.17;100.00;-15917.19;5010673;28;51359;-47
2023/01/25 03:20:21;;;;;;;;;51.00;43.25;;;;;-147.17;100.00;-15917.19;5005552;28;51416;-45
2023/01/25 03:22:46;;;;;;;;;57.00;43.50;;;;;-147.17;100.00;-15917.19;5007177;28;51897;-44
2023/01/25 03:25:11;;;;;;;;;56.75;44.25;;;;;-147.17;100.00;-15917.19;5007097;28;51717;-44
2023/01/25 03:27:37;;;;;;;;;50.25;42.75;;;;;-147.17;100.00;-15917.19;5009250;28;53887;-45
2023/01/25 03:30:03;;;;;;;;;54.75;43.25;;;;;-147.17;100.00;-15917.19;5011485;28;51223;-45
2023/01/25 03:32:28;;;;;;;;;51.75;42.00;;;;;-147.17;100.00;-15917.19;5007344;28;52541;-44
2023/01/25 03:34:54;;;;;;;;;53.75;42.50;;;;;-147.17;100.00;-15917.19;5006291;28;51280;-44
2023/01/25 03:37:19;;;;;;;;;54.00;43.25;;;;;-147.17;100.00;-15917.19;5005603;28;51186;-45
2023/01/25 03:39:44;;;;;;;;;39.25;37.25;;;;;-147.17;100.00;-15917.19;5010248;28;51594;-44
2023/01/25 03:42:10;;;;;;;;;44.75;39.00;;;;;-147.17;100.00;-15917.19;5008525;28;51450;-45
2023/01/25 03:44:35;;;;;;;;;54.25;45.50;;;;;-147.17;100.00;-15917.19;5007028;28;51171;-45
2023/01/25 03:47:00;;;;;;;;;42.25;40.00;;;;;-147.17;100.00;-15917.19;5005493;28;52253;-45
2023/01/25 03:49:26;;;;;;;;;58.25;43.25;;;;;-147.17;100.00;-15917.19;5002564;28;51351;-45
2023/01/25 03:51:52;;;;;;;;;58.50;43.25;;;;;-147.17;100.00;-15917.19;5011194;28;51309;-44
2023/01/25 03:54:17;;;;;;;;;59.75;46.25;;;;;-147.17;100.00;-15917.19;4999099;28;51291;-44
2023/01/25 03:56:43;;;;;;;;;60.00;46.00;;;;;-147.17;100.00;-15917.19;5005007;28;51164;-44
2023/01/25 03:59:10;;;;;;;;;49.25;43.00;;;;;-147.17;100.00;-15917.19;4990926;28;52329;-45
2023/01/25 04:01:35;;;;;;;;;45.00;36.75;;;;;-147.17;100.00;-15917.19;5007235;28;54182;-44
2023/01/25 04:04:00;;;;;;;;;50.50;43.25;;;;;-147.17;100.00;-15917.19;5011601;28;51881;-44
2023/01/25 04:06:26;;;;;;;;;61.00;47.25;;;;;-147.17;100.00;-15917.19;5005977;28;51412;-44
2023/01/25 04:08:51;;;;;;;;;62.50;47.00;;;;;-147.17;100.00;-15917.19;5007822;28;51041;-45
2023/01/25 04:11:17;;;;;;;;;58.75;46.50;;;;;-147.17;100.00;-15917.19;5007604;28;51161;-45
2023/01/25 04:13:42;;;;;;;;;55.00;41.50;;;;;-147.17;100.00;-15917.19;5010457;28;51248;-45
2023/01/25 04:16:10;;;;;;;;;57.00;42.50;;;;;-147.17;100.00;-15917.19;5002883;28;51450;-45
2023/01/25 04:18:36;;;;;;;;;50.00;43.25;;;;;-147.17;100.00;-15917.19;4999100;28;53587;-45
2023/01/25 04:21:01;;;;;;;;;49.00;44.50;;;;;-147.17;100.00;-15917.19;5005853;28;51312;-44
2023/01/25 04:23:27;;;;;;;;;51.75;41.75;;;;;-147.17;100.00;-15917.19;5008231;28;51037;-44
2023/01/25 04:25:56;;;;;;;;;62.25;50.25;;;;;-147.17;100.00;-15917.19;5009373;28;51220;-44
2023/01/25 04:28:22;;;;;;;;;42.50;39.25;;;;;-147.17;100.00;-15917.19;4999437;28;51267;-46
2023/01/25 04:30:47;;;;;;;;;54.50;41.75;;;;;-147.17;100.00;-15917.19;5003329;28;51220;-44
2023/01/25 04:33:13;;;;;;;;;54.50;42.25;;;;;-147.17;100.00;-15917.19;5005999;28;51252;-44
2023/01/25 04:35:38;;;;;;;;;48.25;41.75;;;;;-147.17;100.00;-15917.19;5009290;28;51062;-44
2023/01/25 04:38:04;;;;;;;;;54.50;43.50;;;;;-147.17;100.00;-15917.19;5006221;28;51826;-44
2023/01/25 04:40:29;;;;;;;;;51.25;42.50;;;;;-147.17;100.00;-15917.19;5004873;28;54021;-44
2023/01/25 04:42:55;;;;;;;;;58.50;43.25;;;;;-147.17;100.00;-15917.19;5003948;28;51569;-44
2023/01/25 04:45:25;;;;;;;;;44.50;38.00;;;;;-147.17;100.00;-15917.19;4999431;28;51168;-45
2023/01/25 04:47:58;;;;;;;;;40.00;34.50;;;;;-147.17;100.00;-15917.19;5010776;28;51219;-45
2023/01/25 04:50:24;;;;;;;;;49.50;40.75;;;;;-147.17;100.00;-15917.19;4993048;28;54171;-45
2023/01/25 04:52:49;;;;;;;;;43.25;39.00;;;;;-147.17;100.00;-15917.19;5012445;28;51019;-45
2023/01/25 04:55:15;;;;;;;;;48.50;41.50;;;;;-147.17;100.00;-15917.19;5011650;28;51109;-45
2023/01/25 04:57:40;;;;;;;;;46.25;39.25;;;;;-147.17;100.00;-15917.19;4994328;28;51452;-45
2023/01/25 05:00:07;;;;;;;;;45.25;38.00;;;;;-147.17;100.00;-15917.19;5012530;28;51034;-44
2023/01/25 05:02:32;;;;;;;;;45.00;39.50;;;;;-147.17;100.00;-15917.19;4994100;28;51039;-44
2023/01/25 05:04:57;;;;;;;;;49.00;41.50;;;;;-147.17;100.00;-15917.19;5010048;28;51299;-44
2023/01/25 05:07:23;;;;;;;;;41.75;37.75;;;;;-147.17;100.00;-15917.19;5012554;28;51312;-45
2023/01/25 05:09:48;;;;;;;;;42.75;39.25;;;;;-147.17;100.00;-15917.19;5012004;28;51973;-44
2023/01/25 05:12:14;;;;;;;;;41.50;39.25;;;;;-147.17;100.00;-15917.19;5012010;28;51129;-44
2023/01/25 05:14:39;;;;;;;;;37.50;35.50;;;;;-147.17;100.00;-15917.19;5010138;28;51703;-45
2023/01/25 05:17:05;;;;;;;;;31.75;29.50;;;;;-147.17;100.00;-15917.19;5011432;28;51066;-44
2023/01/25 05:19:31;;;;;;;;;37.00;33.00;;;;;-147.17;100.00;-15917.19;5011200;28;52035;-44
2023/01/25 05:21:57;;;;;;;;;29.25;25.25;;;;;-147.17;100.00;-15917.19;5012649;28;51074;-44
2023/01/25 05:24:28;;;;;;;;;38.75;30.00;;;;;-147.17;100.00;-15917.19;5013113;28;51251;-44
2023/01/25 05:26:59;;;;;;;;;32.75;31.00;;;;;-147.17;100.00;-15917.19;5009036;28;51094;-44
2023/01/25 05:29:30;;;;;;;;;41.25;38.00;;;;;-147.17;100.00;-15917.19;5012155;28;51960;-44
2023/01/25 05:31:56;;;;;;;;;42.50;37.75;;;;;-147.17;100.00;-15917.19;5011075;28;51132;-44
2023/01/25 05:34:22;;;;;;;;;34.50;30.25;;;;;-147.17;100.00;-15917.19;5011807;28;51203;-44
2023/01/25 05:36:47;;;;;;;;;38.50;34.00;;;;;-147.17;100.00;-15917.19;5011634;28;51242;-44
2023/01/25 05:39:12;;;;;;;;;40.00;34.75;;;;;-147.17;100.00;-15917.19;5010750;28;51539;-44
2023/01/25 05:41:38;;;;;;;;;38.00;33.00;;;;;-147.17;100.00;-15917.19;5012196;28;50999;-44
2023/01/25 05:44:03;;;;;;;;;44.75;37.25;;;;;-147.17;100.00;-15917.19;5010887;28;52085;-44
2023/01/25 05:46:29;;;;;;;;;32.75;28.25;;;;;-147.17;100.00;-15917.19;4993217;28;51074;-44
2023/01/25 05:48:54;;;;;;;;;33.50;30.00;;;;;-147.17;100.00;-15917.19;5010976;28;52163;-44
2023/01/25 05:51:20;;;;;;;;;29.50;26.00;;;;;-147.17;100.00;-15917.19;5011001;28;51067;-46
2023/01/25 05:53:45;;;;;;;;;38.00;33.00;;;;;-147.17;100.00;-15917.19;5011719;28;51550;-45
2023/01/25 05:56:10;;;;;;;;;33.50;31.25;;;;;-147.17;100.00;-15917.19;5011560;28;51020;-44
2023/01/25 05:58:37;;;;;;;;;28.25;25.50;;;;;-147.17;100.00;-15917.19;5010852;28;52159;-44
2023/01/25 06:01:04;;;;;;;;;38.25;33.25;;;;;-147.17;100.00;-15917.19;5010131;28;51131;-45
2023/01/25 06:03:30;;;;;;;;;36.00;27.25;;;;;-147.17;100.00;-15917.19;5010321;28;51193;-45
2023/01/25 06:05:57;;;;;;;;;31.25;28.50;;;;;-147.17;100.00;-15917.19;5011652;28;51136;-45
2023/01/25 06:08:23;;;;;;;;;30.50;26.75;;;;;-147.17;100.00;-15917.19;5007808;28;51992;-43
2023/01/25 06:10:48;;;;;;;;;27.00;25.00;;;;;-147.17;100.00;-15917.19;5010688;28;51106;-44
2023/01/25 06:13:13;;;;;;;;;23.50;21.25;;;;;-147.17;100.00;-15917.19;5011188;28;51158;-44
2023/01/25 06:15:39;;;;;;;;;25.00;23.00;;;;;-147.17;100.00;-15917.19;5012268;28;51234;-44
2023/01/25 06:18:04;;;;;;;;;23.25;23.00;;;;;-147.17;100.00;-15917.19;5014128;28;50987;-45
2023/01/25 06:20:30;;;;;;;;;28.50;21.75;;;;;-147.17;100.00;-15917.19;5014888;28;51004;-45
2023/01/25 06:22:55;;;;;;;;;21.00;17.75;;;;;-147.17;100.00;-15917.19;5014248;28;50857;-44
2023/01/25 06:25:20;;;;;;;;;19.75;17.50;;;;;-147.17;100.00;-15917.19;5009462;28;50957;-45
2023/01/25 06:27:46;;;;;;;;;21.75;19.00;;;;;-147.17;100.00;-15917.19;5012680;28;51319;-45
2023/01/25 06:30:11;;;;;;;;;24.75;22.00;;;;;-147.17;100.00;-15917.19;5014923;28;50982;-43
2023/01/25 06:32:37;;;;;;;;;22.50;19.75;;;;;-147.17;100.00;-15917.19;4996447;28;51091;-46
2023/01/25 06:35:02;;;;;;;;;25.75;19.75;;;;;-147.17;100.00;-15917.19;5014183;28;50928;-45
2023/01/25 06:37:28;;;;;;;;;28.25;21.75;;;;;-147.17;100.00;-15917.19;5013018;28;52198;-46
2023/01/25 06:39:53;;;;;;;;;23.00;22.00;;;;;-147.17;100.00;-15917.19;5014694;28;50902;-46
2023/01/25 06:42:19;;;;;;;;;21.50;19.00;;;;;-147.17;100.00;-15917.19;5014757;28;51491;-44
2023/01/25 06:44:44;;;;;;;;;16.75;15.50;;;;;-147.17;100.00;-15917.19;5015172;28;50990;-45
2023/01/25 06:47:11;;;;;;;;;22.50;20.50;;;;;-147.17;100.00;-15917.19;5013534;28;51147;-45
2023/01/25 06:49:37;;;;;;;;;13.25;12.25;;;;;-147.17;100.00;-15917.19;4993540;28;51112;-45
2023/01/25 06:52:02;;;;;;;;;26.50;20.75;;;;;-147.17;100.00;-15917.19;4990017;28;51297;-45
2023/01/25 06:54:28;;;;;;;;;21.00;20.25;;;;;-147.17;100.00;-15917.19;4998812;28;51262;-45
2023/01/25 06:56:53;;;;;;;;;20.75;18.50;;;;;-147.17;100.00;-15917.19;5011694;28;52064;-45
2023/01/25 06:59:18;;;;;;;;;24.50;21.50;;;;;-147.17;100.00;-15917.19;5013247;28;51086;-45
2023/01/25 07:01:44;;;;;;;;;19.75;18.50;;;;;-147.17;100.00;-15917.19;5006280;28;51165;-48
2023/01/25 07:04:11;;;;;;;;;23.25;20.25;;;;;-147.17;100.00;-15917.19;5003383;28;51153;-45
2023/01/25 07:06:36;;;;;;;;;18.25;18.00;;;;;-147.17;100.00;-15917.19;5013600;28;52014;-44
2023/01/25 07:09:05;;;;;;;;;18.00;13.00;;;;;-147.17;100.00;-15917.19;4996804;28;51110;-45
2023/01/25 07:11:30;;;;;;;;;24.25;16.50;;;;;-147.17;100.00;-15917.19;5013657;28;51042;-44
2023/01/25 07:13:55;;;;;;;;;21.50;18.25;;;;;-147.17;100.00;-15917.19;5012037;28;51390;-45
2023/01/25 07:16:21;;;;;;;;;20.75;18.25;;;;;-147.17;100.00;-15917.19;5011665;28;52345;-45
2023/01/25 07:18:46;;;;;;;;;21.25;20.50;;;;;-147.17;100.00;-15917.19;5013448;28;50974;-45
2023/01/25 07:21:15;;;;;;;;;21.00;17.75;;;;;-147.17;100.00;-15917.19;5013374;28;51110;-45
2023/01/25 07:23:40;;;;;;;;;26.75;22.25;;;;;-147.17;100.00;-15917.19;5012584;28;51193;-45
2023/01/25 07:26:20;;;;;;;;;21.75;21.75;;;;;-147.17;100.00;-15917.19;5013603;28;51792;-45
2023/01/25 07:28:46;;;;;;;;;22.50;20.25;;;;;-147.17;100.00;-15917.19;5012389;28;50998;-45
2023/01/25 07:31:14;;;;;;;;;16.25;11.00;;;;;-147.17;100.00;-15917.19;5011989;28;51100;-45
2023/01/25 07:33:40;;;;;;;;;16.00;13.75;;;;;-147.17;100.00;-15917.19;4993625;28;51097;-45
2023/01/25 07:36:07;;;;;;;;;15.75;14.00;;;;;-147.17;100.00;-15917.19;5007740;28;51164;-45
2023/01/25 07:38:34;;;;;;;;;36.75;30.50;;;;;-147.17;100.00;-15917.19;5010046;28;51089;-45
2023/01/25 07:41:00;;;;;;;;;23.00;23.00;;;;;-147.17;100.00;-15917.19;5008712;28;51192;-46
2023/01/25 07:43:25;;;;;;;;;22.00;22.00;;;;;-147.17;100.00;-15917.19;5011255;28;51479;-45
2023/01/25 07:45:51;;;;;;;;;33.25;25.50;;;;;-147.17;100.00;-15917.19;5009132;28;52243;-45
2023/01/25 07:48:18;;;;;;;;;23.75;21.00;;;;;-147.17;100.00;-15917.19;5009436;28;51086;-46
2023/01/25 07:51:10;;;;;;;;;29.25;23.25;;;;;-147.17;100.00;-15917.19;5011734;28;51059;-46
2023/01/25 07:53:31;;;;;;;;;22.50;21.00;;;;;-147.17;100.00;-15917.19;5011529;28;51242;-45
2023/01/25 07:55:57;;;;;;;;;25.75;22.00;;;;;-147.17;100.00;-15917.19;5010141;28;51333;-45
2023/01/25 07:58:23;;;;;;;;;23.00;20.50;;;;;-147.17;100.00;-15917.19;4992981;28;50999;-46
2023/01/25 08:00:48;;;;;;;;;26.00;23.75;;;;;-147.17;100.00;-15917.19;5011003;28;51160;-45
2023/01/25 08:03:14;;;;;;;;;28.25;24.25;;;;;-147.17;100.00;-15917.19;5010887;28;51248;-45
2023/01/25 08:05:43;;;;;;;;;26.00;24.00;;;;;-147.17;100.00;-15917.19;5009720;28;51152;-46
2023/01/25 08:08:08;;;;;;;;;28.25;24.25;;;;;-147.17;100.00;-15917.19;5004576;28;51404;-45
2023/01/25 08:10:34;;;;;;;;;20.75;17.50;;;;;-147.17;100.00;-15917.19;5012608;28;51094;-46
2023/01/25 08:12:59;;;;;;;;;24.25;20.25;;;;;-147.17;100.00;-15917.19;5013581;28;51098;-46
2023/01/25 08:15:24;;;;;;;;;31.50;27.75;;;;;-147.17;100.00;-15917.19;5012727;28;51377;-45
2023/01/25 08:17:50;;;;;;;;;25.50;20.75;;;;;-147.17;100.00;-15917.19;5011292;28;52358;-44
2023/01/25 08:20:16;;;;;;;;;22.75;21.25;;;;;-147.17;100.00;-15917.19;5004035;28;50980;-45
2023/01/25 08:22:41;;;;;;;;;21.50;20.50;;;;;-147.17;100.00;-15917.19;5013466;28;51309;-46
2023/01/25 08:25:07;;;;;;;;;19.25;17.50;;;;;-147.17;100.00;-15917.19;5013138;28;51494;-46
2023/01/25 08:27:32;;;;;;;;;24.75;16.00;;;;;-147.17;100.00;-15917.19;5013499;28;50877;-46
2023/01/25 08:29:58;;;;;;;;;20.25;19.25;;;;;-147.17;100.00;-15917.19;5013216;28;50996;-45
2023/01/25 08:32:23;;;;;;;;;21.00;19.00;;;;;-147.17;100.00;-15917.19;5013012;28;51291;-45
2023/01/25 08:34:48;;;;;;;;;24.25;22.50;;;;;-147.17;100.00;-15917.19;4995354;28;50989;-45
2023/01/25 08:37:14;;;;;;;;;17.00;16.75;;;;;-147.17;100.00;-15917.19;5013670;28;51020;-45
2023/01/25 08:39:39;;;;;;;;;20.75;18.00;;;;;-147.17;100.00;-15917.19;5013502;28;51023;-47
2023/01/25 08:42:05;;;;;;;;;22.50;18.25;;;;;-147.17;100.00;-15917.19;5014488;28;51341;-46
2023/01/25 08:44:31;;;;;;;;;28.25;24.50;;;;;-147.17;100.00;-15917.19;5014630;28;52517;-44
2023/01/25 08:46:56;;;;;;;;;33.75;28.50;;;;;-147.17;100.00;-15917.19;5013899;28;51019;-45
2023/01/25 08:49:21;;;;;;;;;29.50;22.00;;;;;-147.17;100.00;-15917.19;5013942;28;51734;-46
2023/01/25 08:51:49;;;;;;;;;27.75;24.25;;;;;-147.17;100.00;-15917.19;5012233;28;51109;-44
2023/01/25 08:54:15;;;;;;;;;21.75;18.50;;;;;-147.17;100.00;-15917.19;5012689;28;51125;-45
2023/01/25 08:56:41;;;;;;;;;21.75;19.00;;;;;-147.17;100.00;-15917.19;4994793;28;51120;-46
2023/01/25 08:59:10;;;;;;;;;23.25;21.00;;;;;-147.17;100.00;-15917.19;5013334;28;51091;-47
2023/01/25 09:01:36;;;;;;;;;19.75;17.50;;;;;-147.17;100.00;-15917.19;5012641;28;51127;-47
2023/01/25 09:04:01;;;;;;;;;24.00;19.00;;;;;-147.17;100.00;-15917.19;5012682;28;51066;-44
2023/01/25 09:06:26;;;;;;;;;22.50;21.50;;;;;-147.17;100.00;-15917.19;4994782;28;51039;-44
2023/01/25 09:08:52;;;;;;;;;29.50;25.25;;;;;-147.17;100.00;-15917.19;5012787;28;51064;-45
2023/01/25 09:11:20;;;;;;;;;24.75;22.00;;;;;-147.17;100.00;-15917.19;5012514;28;51129;-45
2023/01/25 09:13:47;;;;;;;;;27.00;23.75;;;;;-147.17;100.00;-15917.19;5012633;28;50967;-45
2023/01/25 09:16:15;;;;;;;;;24.25;19.25;;;;;-147.17;100.00;-15917.19;5012135;28;50980;-46
2023/01/25 09:18:42;;;;;;;;;21.00;15.75;;;;;-147.17;100.00;-15917.19;5012565;28;51062;-46
2023/01/25 09:21:11;;;;;;;;;27.25;24.75;;;;;-147.17;100.00;-15917.19;5012959;28;51010;-45
2023/01/25 09:23:37;;;;;;;;;22.50;20.00;;;;;-147.17;100.00;-15917.19;5012511;28;52281;-45
2023/01/25 09:26:03;;;;;;;;;23.50;21.50;;;;;-147.17;100.00;-15917.19;5012392;28;51200;-47
2023/01/25 09:28:30;;;;;;;;;23.75;19.75;;;;;-147.17;100.00;-15917.19;5012441;28;51007;-44
2023/01/25 09:31:02;;;;;;;;;25.50;23.75;;;;;-147.17;100.00;-15917.19;5012440;28;51109;-45
2023/01/25 09:33:31;;;;;;;;;37.00;33.50;;;;;-147.17;100.00;-15917.19;5011788;28;50934;-46
2023/01/25 09:35:56;;;;;;;;;29.25;27.25;;;;;-147.17;100.00;-15917.19;5011836;28;51018;-46
2023/01/25 09:38:22;;;;;;;;;22.75;21.75;;;;;-147.17;100.00;-15917.19;5012445;28;51017;-46
2023/01/25 09:41:04;;;;;;;;;31.00;25.25;;;;;-147.17;100.00;-15917.19;5012301;28;51215;-46
2023/01/25 09:44:11;;;;;;;;;30.00;28.25;;;;;-147.17;100.00;-15917.19;4994809;28;53293;-45
2023/01/25 09:46:41;;;;;;;;;34.00;25.75;;;;;-147.17;100.00;-15917.19;4992601;28;51431;-46
2023/01/25 09:49:22;;;;;;;;;25.25;21.75;;;;;-147.17;100.00;-15917.19;5012447;28;51120;-45
2023/01/25 09:52:08;;;;;;;;;24.00;23.50;;;;;-147.17;100.00;-15917.19;5014966;28;51156;-46
2023/01/25 09:54:43;;;;;;;;;21.75;21.00;;;;;-147.17;100.00;-15917.19;5015450;28;52178;-45
2023/01/25 09:57:15;;;;;;;;;20.50;17.25;;;;;-147.17;100.00;-15917.19;5015586;28;51116;-45
2023/01/25 09:59:42;;;;;;;;;28.00;25.25;;;;;-147.17;100.00;-15917.19;5015677;28;51062;-44
2023/01/25 10:02:26;;;;;;;;;24.75;22.25;;;;;-147.17;100.00;-15917.19;5013367;28;51116;-47
2023/01/25 10:04:56;;;;;;;;;31.50;28.50;;;;;-147.17;100.00;-15917.19;5012042;28;51306;-46
2023/01/25 10:07:30;;;;;;;;;24.00;21.00;;;;;-147.17;100.00;-15917.19;4995768;28;51218;-46
2023/01/25 10:10:10;;;;;;;;;20.50;16.50;;;;;-147.17;100.00;-15917.19;4994787;28;51175;-43
2023/01/25 10:12:37;;;;;;;;;26.25;20.50;;;;;-147.17;100.00;-15917.19;5009061;28;51074;-45
2023/01/25 10:15:25;;;;;;;;;25.75;23.00;;;;;-147.17;100.00;-15917.19;5013792;28;51121;-46
2023/01/25 10:18:25;;;;;;;;;26.25;25.75;;;;;-147.17;100.00;-15917.19;5010520;28;51008;-46
2023/01/25 10:21:01;;;;;;;;;23.75;23.00;;;;;-147.17;100.00;-15917.19;4967824;28;51324;-45
2023/01/25 10:23:59;;;;;;;;;28.50;24.50;;;;;-147.17;100.00;-15917.19;4998242;28;50998;-45
2023/01/25 10:26:28;;;;;;;;;25.00;23.75;;;;;-147.17;100.00;-15917.19;4961467;28;52407;-44
2023/01/25 10:29:18;;;;;;;;;26.25;22.50;;;;;-147.17;100.00;-15917.19;5015786;28;50985;-44
2023/01/25 10:31:54;;;;;;;;;26.00;24.00;;;;;-147.17;100.00;-15917.19;5015371;28;51054;-46
2023/01/25 10:34:25;;;;;;;;;20.00;19.50;;;;;-147.17;100.00;-15917.19;5015540;28;50909;-46
2023/01/25 10:36:54;;;;;;;;;26.75;24.25;;;;;-147.17;100.00;-15917.19;5013653;28;52318;-44
2023/01/25 10:39:20;;;;;;;;;31.25;26.25;;;;;-147.17;100.00;-15917.19;5013816;28;51185;-45
2023/01/25 10:42:08;;;;;;;;;32.50;31.00;;;;;-147.17;100.00;-15917.19;5014803;28;50881;-45
2023/01/25 10:44:34;;;;;;;;;27.00;25.25;;;;;-147.17;100.00;-15917.19;5010135;28;51188;-49
2023/01/25 10:47:08;;;;;;;;;39.50;32.50;;;;;-147.17;100.00;-15917.19;5012447;28;52650;-45
2023/01/25 10:49:54;;;;;;;;;34.50;29.50;;;;;-147.17;100.00;-15917.19;4997338;28;51072;-46
2023/01/25 10:52:23;;;;;;;;;33.00;28.75;;;;;-147.17;100.00;-15917.19;5010113;28;51015;-45